createdAt,value
2023-04-17T00:00:36.677Z,21.10
2023-04-17T00:03:03.840Z,16.70
2023-04-17T00:05:31.963Z,19.47
2023-04-17T00:08:00.117Z,18.50
2023-04-17T00:10:27.455Z,18.33
2023-04-17T00:12:54.468Z,18.90
2023-04-17T00:15:21.477Z,16.60
2023-04-17T00:17:51.438Z,18.50
2023-04-17T00:20:18.539Z,20.73
2023-04-17T00:22:45.851Z,16.20
2023-04-17T00:25:14.843Z,17.67
2023-04-17T00:27:42.995Z,20.40
2023-04-17T00:30:10.722Z,18.77
2023-04-17T00:32:37.802Z,17.30
2023-04-17T00:35:05.393Z,19.87
2023-04-17T00:37:32.342Z,18.47
2023-04-17T00:39:59.345Z,16.37
2023-04-17T00:42:26.322Z,21.27
2023-04-17T00:44:53.318Z,18.10
2023-04-17T00:47:22.692Z,18.97
2023-04-17T00:49:51.025Z,18.23
2023-04-17T00:52:27.855Z,17.67
2023-04-17T00:54:58.095Z,23.20
2023-04-17T00:57:25.509Z,20.70
2023-04-17T00:59:52.813Z,16.50
2023-04-17T01:02:19.927Z,20.00
2023-04-17T01:04:47.002Z,17.30
2023-04-17T01:07:13.992Z,18.73
2023-04-17T01:09:41.547Z,18.50
2023-04-17T01:12:23.718Z,20.77
2023-04-17T01:14:55.626Z,19.73
2023-04-17T01:17:26.214Z,16.00
2023-04-17T01:19:54.048Z,17.60
2023-04-17T01:22:21.424Z,16.03
2023-04-17T01:24:49.220Z,16.47
2023-04-17T01:27:16.214Z,19.27
2023-04-17T01:29:43.792Z,18.03
2023-04-17T01:34:57.206Z,16.87
2023-04-17T01:37:24.180Z,18.40
2023-04-17T01:39:51.147Z,23.13
2023-04-17T01:42:18.184Z,17.83
2023-04-17T01:44:45.941Z,20.47
2023-04-17T01:47:12.992Z,22.97
2023-04-17T01:49:40.061Z,16.67
2023-04-17T01:52:07.188Z,17.33
2023-04-17T01:54:34.143Z,19.87
2023-04-17T01:57:01.369Z,19.00
2023-04-17T01:59:28.412Z,17.77
2023-04-17T02:01:57.164Z,19.37
2023-04-17T02:04:24.512Z,18.47
2023-04-17T02:06:51.563Z,17.97
2023-04-17T02:09:18.877Z,20.10
2023-04-17T02:11:45.903Z,22.03
2023-04-17T02:14:12.865Z,18.13
2023-04-17T02:16:45.713Z,18.67
2023-04-17T02:19:13.721Z,21.67
2023-04-17T02:21:41.199Z,18.13
2023-04-17T02:24:08.284Z,17.53
2023-04-17T02:26:37.014Z,20.67
2023-04-17T02:29:04.039Z,19.27
2023-04-17T02:31:31.662Z,17.67
2023-04-17T02:33:58.690Z,19.77
2023-04-17T02:36:27.234Z,18.93
2023-04-17T02:38:54.198Z,16.37
2023-04-17T02:41:22.013Z,17.20
2023-04-17T02:43:48.983Z,18.67
2023-04-17T02:46:16.085Z,18.47
2023-04-17T02:48:43.108Z,18.30
2023-04-17T02:51:10.102Z,16.40
2023-04-17T02:53:37.107Z,18.67
2023-04-17T02:56:04.435Z,19.23
2023-04-17T02:58:31.888Z,18.87
2023-04-17T03:01:03.501Z,16.10
2023-04-17T03:03:35.096Z,16.10
2023-04-17T03:06:02.838Z,19.53
2023-04-17T03:08:32.581Z,18.27
2023-04-17T03:11:00.048Z,19.20
2023-04-17T03:13:27.044Z,18.83
2023-04-17T03:15:54.284Z,17.07
2023-04-17T03:18:21.269Z,19.50
2023-04-17T03:20:48.261Z,20.30
2023-04-17T03:23:15.428Z,21.67
2023-04-17T03:25:42.726Z,17.27
2023-04-17T03:28:09.790Z,19.60
2023-04-17T03:30:36.769Z,18.83
2023-04-17T03:33:03.935Z,16.23
2023-04-17T03:35:31.362Z,16.90
2023-04-17T03:37:58.436Z,20.73
2023-04-17T03:40:25.499Z,18.10
2023-04-17T03:42:52.911Z,18.23
2023-04-17T03:45:20.011Z,16.30
2023-04-17T03:47:47.999Z,16.90
2023-04-17T03:50:15.354Z,19.27
2023-04-17T03:52:43.366Z,17.83
2023-04-17T03:55:11.459Z,19.70
2023-04-17T03:57:38.612Z,18.63
2023-04-17T04:00:08.441Z,21.23
2023-04-17T04:02:35.549Z,17.17
2023-04-17T04:05:03.204Z,17.67
2023-04-17T04:07:30.234Z,19.43
2023-04-17T04:09:57.299Z,25.77
2023-04-17T04:12:25.034Z,20.27
2023-04-17T04:14:52.037Z,17.37
2023-04-17T04:17:19.097Z,20.67
2023-04-17T04:19:46.494Z,16.87
2023-04-17T04:22:13.760Z,16.63
2023-04-17T04:24:40.985Z,20.43
2023-04-17T04:27:09.286Z,19.83
2023-04-17T04:29:37.863Z,19.00
2023-04-17T04:32:05.425Z,18.43
2023-04-17T04:34:33.218Z,16.20
2023-04-17T04:37:00.226Z,19.37
2023-04-17T04:39:29.987Z,21.43
2023-04-17T04:42:05.852Z,17.87
2023-04-17T04:44:32.902Z,20.20
2023-04-17T04:46:59.943Z,15.83
2023-04-17T04:49:27.258Z,19.73
2023-04-17T04:51:54.571Z,16.00
2023-04-17T04:54:21.594Z,18.47
2023-04-17T04:56:49.065Z,20.60
2023-04-17T04:59:16.054Z,18.27
2023-04-17T05:01:44.896Z,17.00
2023-04-17T05:04:12.088Z,20.37
2023-04-17T05:06:39.265Z,15.27
2023-04-17T05:09:07.035Z,21.20
2023-04-17T05:11:34.475Z,20.00
2023-04-17T05:14:01.592Z,19.77
2023-04-17T05:16:28.656Z,21.57
2023-04-17T05:18:56.570Z,24.10
2023-04-17T05:21:23.632Z,20.47
2023-04-17T05:23:50.820Z,19.43
2023-04-17T05:26:17.906Z,24.67
2023-04-17T05:28:45.420Z,22.07
2023-04-17T05:31:12.465Z,22.23
2023-04-17T05:33:39.493Z,17.27
2023-04-17T05:36:07.595Z,18.60
2023-04-17T05:38:34.618Z,19.70
2023-04-17T05:41:02.181Z,22.20
2023-04-17T05:43:29.270Z,17.33
2023-04-17T05:45:56.346Z,19.10
2023-04-17T05:48:23.415Z,20.23
2023-04-17T05:50:50.436Z,18.97
2023-04-17T05:53:17.732Z,22.93
2023-04-17T05:55:44.718Z,19.07
2023-04-17T05:58:23.298Z,17.83
2023-04-17T06:00:52.487Z,21.10
2023-04-17T06:03:20.913Z,16.90
2023-04-17T06:05:48.419Z,19.67
2023-04-17T06:08:15.616Z,21.57
2023-04-17T06:10:45.766Z,20.00
2023-04-17T06:13:12.904Z,19.63
2023-04-17T06:15:39.886Z,18.23
2023-04-17T06:18:06.993Z,18.45
2023-04-17T06:20:34.239Z,24.13
2023-04-17T06:23:01.361Z,20.50
2023-04-17T06:25:28.366Z,20.37
2023-04-17T06:27:55.478Z,22.50
2023-04-17T06:30:22.459Z,26.73
2023-04-17T06:32:49.487Z,18.20
2023-04-17T06:35:16.604Z,23.03
2023-04-17T06:37:43.601Z,18.77
2023-04-17T06:40:12.465Z,20.57
2023-04-17T06:42:39.696Z,22.17
2023-04-17T06:45:07.390Z,20.70
2023-04-17T06:47:34.436Z,24.77
2023-04-17T06:50:01.572Z,19.37
2023-04-17T06:52:28.565Z,21.77
2023-04-17T06:54:56.403Z,23.60
2023-04-17T06:57:23.422Z,19.47
2023-04-17T06:59:50.439Z,22.87
2023-04-17T07:02:18.065Z,18.95
2023-04-17T07:04:45.189Z,23.38
2023-04-17T07:07:12.352Z,21.03
2023-04-17T07:09:39.346Z,19.37
2023-04-17T07:12:06.524Z,18.02
2023-04-17T07:14:33.647Z,18.23
2023-04-17T07:17:01.347Z,21.65
2023-04-17T07:19:28.420Z,20.13
2023-04-17T07:21:56.419Z,18.85
2023-04-17T07:24:23.378Z,16.75
2023-04-17T07:26:50.394Z,18.23
2023-04-17T07:29:20.539Z,17.98
2023-04-17T07:31:47.853Z,19.85
2023-04-17T07:34:14.895Z,25.88
2023-04-17T07:36:41.875Z,21.55
2023-04-17T07:39:08.858Z,22.58
2023-04-17T07:41:36.147Z,18.30
2023-04-17T07:44:03.646Z,18.88
2023-04-17T07:46:30.777Z,20.58
2023-04-17T07:48:58.773Z,19.92
2023-04-17T07:51:26.255Z,23.92
2023-04-17T07:53:53.465Z,19.35
2023-04-17T07:56:20.406Z,17.98
2023-04-17T07:58:47.437Z,19.77
2023-04-17T08:01:15.248Z,22.40
2023-04-17T08:03:45.158Z,18.88
2023-04-17T08:06:12.429Z,17.30
2023-04-17T08:08:39.521Z,19.83
2023-04-17T08:11:06.813Z,20.08
2023-04-17T08:13:33.855Z,17.63
2023-04-17T08:16:01.548Z,17.30
2023-04-17T08:18:28.617Z,17.55
2023-04-17T08:20:55.660Z,17.15
2023-04-17T08:23:22.730Z,17.33
2023-04-17T08:25:49.924Z,17.63
2023-04-17T08:28:17.050Z,17.00
2023-04-17T08:30:44.143Z,20.58
2023-04-17T08:33:13.536Z,18.30
2023-04-17T08:35:40.737Z,18.00
2023-04-17T08:38:33.575Z,14.98
2023-04-17T08:41:51.996Z,15.10
2023-04-17T08:44:24.125Z,19.52
2023-04-17T08:46:51.916Z,19.40
2023-04-17T08:49:19.258Z,14.82
2023-04-17T08:51:47.273Z,19.60
2023-04-17T08:54:14.333Z,19.13
2023-04-17T08:56:41.316Z,16.15
2023-04-17T08:59:08.343Z,18.08
2023-04-17T09:01:35.890Z,13.55
2023-04-17T09:04:03.257Z,16.95
2023-04-17T09:06:53.003Z,16.38
2023-04-17T09:09:20.117Z,16.42
2023-04-17T09:12:12.728Z,14.38
2023-04-17T09:14:40.055Z,16.33
2023-04-17T09:17:07.440Z,18.55
2023-04-17T09:19:35.278Z,15.68
2023-04-17T09:22:22.463Z,12.38
2023-04-17T09:24:49.622Z,13.68
2023-04-17T09:27:24.174Z,15.85
2023-04-17T09:30:03.912Z,16.58
2023-04-17T09:32:33.492Z,16.63
2023-04-17T09:35:03.888Z,16.48
2023-04-17T09:37:55.030Z,14.85
2023-04-17T09:40:25.106Z,15.10
2023-04-17T09:43:01.078Z,15.65
2023-04-17T09:45:35.637Z,15.07
2023-04-17T09:48:11.668Z,16.25
2023-04-17T09:50:39.978Z,16.30
2023-04-17T09:53:08.360Z,19.77
2023-04-17T09:55:38.203Z,14.68
2023-04-17T09:58:07.528Z,16.92
2023-04-17T10:00:36.618Z,14.65
2023-04-17T10:03:04.672Z,14.55
2023-04-17T10:05:32.620Z,13.60
2023-04-17T10:07:59.965Z,14.13
2023-04-17T10:10:34.967Z,18.95
2023-04-17T10:13:08.180Z,14.05
2023-04-17T10:15:36.226Z,12.98
2023-04-17T10:18:24.474Z,16.60
2023-04-17T10:20:53.628Z,15.00
2023-04-17T10:23:35.066Z,16.40
2023-04-17T10:26:28.083Z,13.15
2023-04-17T10:28:57.888Z,18.23
2023-04-17T10:32:10.139Z,16.02
2023-04-17T10:34:38.136Z,16.13
2023-04-17T10:37:05.420Z,13.38
2023-04-17T10:39:54.648Z,16.25
2023-04-17T10:42:23.682Z,16.05
2023-04-17T10:44:55.825Z,18.73
2023-04-17T10:47:29.982Z,14.65
2023-04-17T10:49:59.263Z,13.50
2023-04-17T10:52:32.319Z,13.60
2023-04-17T10:55:23.703Z,16.33
2023-04-17T10:58:11.979Z,12.98
2023-04-17T11:00:50.860Z,10.25
2023-04-17T11:03:18.432Z,17.98
2023-04-17T11:05:47.041Z,11.48
2023-04-17T11:08:15.040Z,10.07
2023-04-17T11:10:42.143Z,13.25
2023-04-17T11:13:10.494Z,12.95
2023-04-17T11:15:37.480Z,16.65
2023-04-17T11:18:04.717Z,12.48
2023-04-17T11:20:36.335Z,12.30
2023-04-17T11:23:05.453Z,12.90
2023-04-17T11:25:34.474Z,16.63
2023-04-17T11:28:06.470Z,12.57
2023-04-17T11:30:35.963Z,12.05
2023-04-17T11:33:08.178Z,12.88
2023-04-17T11:35:43.379Z,15.32
2023-04-17T11:38:23.373Z,10.82
2023-04-17T11:40:53.031Z,10.15
2023-04-17T11:43:22.454Z,13.45
2023-04-17T11:45:58.563Z,19.65
2023-04-17T11:48:28.609Z,13.30
2023-04-17T11:51:05.101Z,11.80
2023-04-17T11:53:36.254Z,12.52
2023-04-17T11:56:18.016Z,17.05
2023-04-17T11:58:52.689Z,14.05
2023-04-17T12:01:25.548Z,10.50
2023-04-17T12:03:58.156Z,13.98
2023-04-17T12:06:37.024Z,11.48
2023-04-17T12:09:04.530Z,12.45
2023-04-17T12:11:33.420Z,12.43
2023-04-17T12:14:02.255Z,9.20
2023-04-17T12:16:30.186Z,11.05
2023-04-17T12:18:57.802Z,9.95
2023-04-17T12:21:24.878Z,12.32
2023-04-17T12:23:52.144Z,13.32
2023-04-17T12:26:19.175Z,11.60
2023-04-17T12:28:46.296Z,12.65
2023-04-17T12:31:13.520Z,15.27
2023-04-17T12:33:40.634Z,10.60
2023-04-17T12:36:08.635Z,11.40
2023-04-17T12:38:36.164Z,9.90
2023-04-17T12:41:03.234Z,11.35
2023-04-17T12:43:33.151Z,10.82
2023-04-17T12:46:00.407Z,12.75
2023-04-17T12:48:27.580Z,10.13
2023-04-17T12:50:54.706Z,12.98
2023-04-17T12:53:21.972Z,11.90
2023-04-17T12:55:48.993Z,10.02
2023-04-17T12:58:16.552Z,14.77
2023-04-17T13:00:44.376Z,9.80
2023-04-17T13:03:12.266Z,9.63
2023-04-17T13:05:39.865Z,9.75
2023-04-17T13:08:12.454Z,10.57
2023-04-17T13:10:39.568Z,11.68
2023-04-17T13:13:06.850Z,16.60
2023-04-17T13:15:34.208Z,16.13
2023-04-17T13:18:02.319Z,13.90
2023-04-17T13:20:29.739Z,17.02
2023-04-17T13:22:58.903Z,10.82
2023-04-17T13:25:26.312Z,8.40
2023-04-17T13:27:55.185Z,12.05
2023-04-17T13:30:22.914Z,11.55
2023-04-17T13:32:50.089Z,11.50
2023-04-17T13:35:17.398Z,12.73
2023-04-17T13:37:44.392Z,14.85
2023-04-17T13:40:12.065Z,9.32
2023-04-17T13:42:39.074Z,13.68
2023-04-17T13:45:07.449Z,11.85
2023-04-17T13:47:34.654Z,7.75
2023-04-17T13:50:01.765Z,10.43
2023-04-17T13:52:28.927Z,9.68
2023-04-17T13:54:55.958Z,6.82
2023-04-17T13:57:23.019Z,10.00
2023-04-17T13:59:50.029Z,7.43
2023-04-17T14:02:17.171Z,11.52
2023-04-17T14:04:44.334Z,10.63
2023-04-17T14:07:12.868Z,7.82
2023-04-17T14:09:39.942Z,9.77
2023-04-17T14:12:07.093Z,10.75
2023-04-17T14:14:34.182Z,6.05
2023-04-17T14:17:01.429Z,8.10
2023-04-17T14:19:28.690Z,7.57
2023-04-17T14:21:55.725Z,10.57
2023-04-17T14:24:22.825Z,9.80
2023-04-17T14:26:49.845Z,6.38
2023-04-17T14:29:16.869Z,9.75
2023-04-17T14:31:43.948Z,6.72
2023-04-17T14:34:11.005Z,7.68
2023-04-17T14:36:38.100Z,7.45
2023-04-17T14:39:05.164Z,7.28
2023-04-17T14:41:34.214Z,9.00
2023-04-17T14:44:01.553Z,7.88
2023-04-17T14:46:28.700Z,10.23
2023-04-17T14:48:56.403Z,9.32
2023-04-17T14:51:27.376Z,9.57
2023-04-17T14:53:54.718Z,10.40
2023-04-17T14:56:22.061Z,15.98
2023-04-17T14:58:49.306Z,7.03
2023-04-17T15:01:16.340Z,7.22
2023-04-17T15:03:46.697Z,8.57
2023-04-17T15:06:15.702Z,7.78
2023-04-17T15:08:42.777Z,9.38
2023-04-17T15:11:10.499Z,7.32
2023-04-17T15:13:39.509Z,10.20
2023-04-17T15:16:09.054Z,8.75
2023-04-17T15:18:36.310Z,7.63
2023-04-17T15:21:03.426Z,9.68
2023-04-17T15:23:30.446Z,13.98
2023-04-17T15:25:58.220Z,10.32
2023-04-17T15:28:25.634Z,7.78
2023-04-17T15:30:53.254Z,8.32
2023-04-17T15:33:20.515Z,9.57
2023-04-17T15:35:47.669Z,6.38
2023-04-17T15:38:14.655Z,11.57
2023-04-17T15:40:41.658Z,9.55
2023-04-17T15:43:10.758Z,8.52
2023-04-17T15:45:37.903Z,8.13
2023-04-17T15:48:05.191Z,6.85
2023-04-17T15:50:34.196Z,9.18
2023-04-17T15:53:01.391Z,11.10
2023-04-17T15:55:28.460Z,9.57
2023-04-17T15:57:56.118Z,9.98
2023-04-17T16:00:23.300Z,10.13
2023-04-17T16:02:52.045Z,10.93
2023-04-17T16:05:19.742Z,10.82
2023-04-17T16:07:47.228Z,9.40
2023-04-17T16:10:14.742Z,11.95
2023-04-17T16:12:43.362Z,9.55
2023-04-17T16:15:16.720Z,7.57
2023-04-17T16:17:45.507Z,8.73
2023-04-17T16:20:13.411Z,9.35
2023-04-17T16:22:40.650Z,7.07
2023-04-17T16:25:08.347Z,8.07
2023-04-17T16:27:37.112Z,7.57
2023-04-17T16:30:05.999Z,12.07
2023-04-17T16:32:33.246Z,7.18
2023-04-17T16:35:00.540Z,14.40
2023-04-17T16:37:27.993Z,8.70
2023-04-17T16:39:55.076Z,11.05
2023-04-17T16:42:22.132Z,10.68
2023-04-17T16:44:49.147Z,11.25
2023-04-17T16:47:16.275Z,11.07
2023-04-17T16:49:43.459Z,9.77
2023-04-17T16:52:10.619Z,12.07
2023-04-17T16:54:37.672Z,11.35
2023-04-17T16:57:05.969Z,9.88
2023-04-17T16:59:33.230Z,10.35
2023-04-17T17:02:03.610Z,11.20
2023-04-17T17:04:31.009Z,11.10
2023-04-17T17:06:58.080Z,8.05
2023-04-17T17:09:26.211Z,12.32
2023-04-17T17:11:53.566Z,8.38
2023-04-17T17:14:20.645Z,10.80
2023-04-17T17:16:47.732Z,8.77
2023-04-17T17:19:15.373Z,8.73
2023-04-17T17:21:42.456Z,9.85
2023-04-17T17:24:09.499Z,7.78
2023-04-17T17:26:39.204Z,9.73
2023-04-17T17:29:06.208Z,8.88
2023-04-17T17:31:34.623Z,9.50
2023-04-17T17:34:11.767Z,10.98
2023-04-17T17:36:49.593Z,8.15
2023-04-17T17:39:16.723Z,9.90
2023-04-17T17:41:45.185Z,9.25
2023-04-17T17:44:14.143Z,7.82
2023-04-17T17:46:41.512Z,8.95
2023-04-17T17:49:08.580Z,13.48
2023-04-17T17:51:35.779Z,11.25
2023-04-17T17:54:02.779Z,10.68
2023-04-17T17:56:29.807Z,11.98
2023-04-17T17:58:56.881Z,9.95
2023-04-17T18:01:24.970Z,14.27
2023-04-17T18:03:53.099Z,8.05
2023-04-17T18:06:20.767Z,11.10
2023-04-17T18:08:47.968Z,10.35
2023-04-17T18:11:15.211Z,10.68
2023-04-17T18:13:42.235Z,10.60
2023-04-17T18:16:09.370Z,10.77
2023-04-17T18:18:36.575Z,11.05
2023-04-17T18:21:08.271Z,9.63
2023-04-17T18:23:35.769Z,13.35
2023-04-17T18:26:04.103Z,12.70
2023-04-17T18:28:31.291Z,11.68
2023-04-17T18:30:58.330Z,9.68
2023-04-17T18:33:25.430Z,10.70
2023-04-17T18:35:52.447Z,11.10
2023-04-17T18:38:19.457Z,18.13
2023-04-17T18:40:46.462Z,11.25
2023-04-17T18:43:13.472Z,15.23
2023-04-17T18:45:40.499Z,10.45
2023-04-17T18:48:07.523Z,10.45
2023-04-17T18:50:34.651Z,11.98
2023-04-17T18:53:02.034Z,11.00
2023-04-17T18:55:29.286Z,10.68
2023-04-17T18:57:56.364Z,13.23
2023-04-17T19:00:23.562Z,12.87
2023-04-17T19:02:50.747Z,12.38
2023-04-17T19:05:17.869Z,10.23
2023-04-17T19:07:44.901Z,11.70
2023-04-17T19:10:11.955Z,14.53
2023-04-17T19:12:39.369Z,13.47
2023-04-17T19:15:07.407Z,15.90
2023-04-17T19:17:34.509Z,12.60
2023-04-17T19:20:01.636Z,13.25
2023-04-17T19:22:28.767Z,13.60
2023-04-17T19:24:55.939Z,11.40
2023-04-17T19:27:24.103Z,12.63
2023-04-17T19:29:51.851Z,13.52
2023-04-17T19:32:19.028Z,13.27
2023-04-17T19:34:46.497Z,13.30
2023-04-17T19:37:13.585Z,12.50
2023-04-17T19:39:40.587Z,14.73
2023-04-17T19:42:07.636Z,18.30
2023-04-17T19:44:34.820Z,11.47
2023-04-17T19:47:01.821Z,16.40
2023-04-17T19:49:28.883Z,15.60
2023-04-17T19:51:55.891Z,15.73
2023-04-17T19:54:22.920Z,15.50
2023-04-17T19:56:49.895Z,14.13
2023-04-17T19:59:16.874Z,13.37
2023-04-17T20:01:44.406Z,16.77
2023-04-17T20:04:11.855Z,16.03
2023-04-17T20:06:39.846Z,16.40
2023-04-17T20:09:07.053Z,15.40
2023-04-17T20:11:34.618Z,15.67
2023-04-17T20:14:01.677Z,16.77
2023-04-17T20:16:28.712Z,16.33
2023-04-17T20:18:56.766Z,27.77
2023-04-17T20:21:24.360Z,16.90
2023-04-17T20:23:51.381Z,17.13
2023-04-17T20:26:18.503Z,16.03
2023-04-17T20:28:45.573Z,17.07
2023-04-17T20:31:12.639Z,16.60
2023-04-17T20:33:39.739Z,18.13
2023-04-17T20:36:06.837Z,24.47
2023-04-17T20:38:33.922Z,19.07
2023-04-17T20:41:00.913Z,19.10
2023-04-17T20:43:27.925Z,17.63
2023-04-17T20:45:54.937Z,17.17
2023-04-17T20:48:22.168Z,20.27
2023-04-17T20:50:49.279Z,14.13
2023-04-17T20:53:16.272Z,15.13
2023-04-17T20:55:43.339Z,18.57
2023-04-17T20:58:10.557Z,16.50
2023-04-17T21:00:44.384Z,22.53
2023-04-17T21:03:14.767Z,17.83
2023-04-17T21:05:41.914Z,16.13
2023-04-17T21:08:08.890Z,15.50
2023-04-17T21:10:35.885Z,16.50
2023-04-17T21:13:02.881Z,18.47
2023-04-17T21:15:29.847Z,23.60
2023-04-17T21:17:56.953Z,16.27
2023-04-17T21:20:24.066Z,18.97
2023-04-17T21:22:51.080Z,17.03
2023-04-17T21:25:18.097Z,18.87
2023-04-17T21:27:45.151Z,18.23
2023-04-17T21:30:12.374Z,19.07
2023-04-17T21:32:40.599Z,18.63
2023-04-17T21:35:08.484Z,19.33
2023-04-17T21:37:35.495Z,30.87
2023-04-17T21:40:02.553Z,23.63
2023-04-17T21:42:29.696Z,22.40
2023-04-17T21:44:56.691Z,19.23
2023-04-17T21:47:23.733Z,20.47
2023-04-17T21:49:50.794Z,17.23
2023-04-17T21:52:17.805Z,19.23
2023-04-17T21:54:44.880Z,21.33
2023-04-17T21:57:11.930Z,21.10
2023-04-17T21:59:39.037Z,15.93
2023-04-17T22:02:06.154Z,19.13
2023-04-17T22:04:33.250Z,19.87
2023-04-17T22:07:00.912Z,20.60
2023-04-17T22:09:29.163Z,22.23
2023-04-17T22:11:57.170Z,21.20
2023-04-17T22:14:24.153Z,21.33
2023-04-17T22:16:51.191Z,24.70
2023-04-17T22:19:18.348Z,22.57
2023-04-17T22:21:45.402Z,18.37
2023-04-17T22:24:12.670Z,24.20
2023-04-17T22:26:39.923Z,21.80
2023-04-17T22:29:06.972Z,26.63
2023-04-17T22:31:34.123Z,19.33
2023-04-17T22:34:01.274Z,22.50
2023-04-17T22:36:28.599Z,19.00
2023-04-17T22:38:55.838Z,23.13
2023-04-17T22:42:53.676Z,23.17
2023-04-17T22:45:20.686Z,19.07
2023-04-17T22:47:47.799Z,24.80
2023-04-17T22:50:14.848Z,21.90
2023-04-17T22:52:41.888Z,23.73
2023-04-17T22:55:09.720Z,26.90
2023-04-17T22:57:36.754Z,22.57
2023-04-17T23:00:04.236Z,25.87
2023-04-17T23:02:31.431Z,23.63
2023-04-17T23:04:58.544Z,23.07
2023-04-17T23:07:25.583Z,19.50
2023-04-17T23:10:30.157Z,20.43
2023-04-17T23:12:57.139Z,23.63
2023-04-17T23:15:24.490Z,25.40
2023-04-17T23:17:51.536Z,20.70
2023-04-17T23:20:18.765Z,24.33
2023-04-17T23:22:46.080Z,20.93
2023-04-17T23:25:13.121Z,27.83
2023-04-17T23:27:40.152Z,21.73
2023-04-17T23:30:08.128Z,23.93
2023-04-17T23:32:35.213Z,23.70
2023-04-17T23:35:02.289Z,23.10
2023-04-17T23:37:29.299Z,27.20
2023-04-17T23:39:56.363Z,23.70
2023-04-17T23:42:23.445Z,23.77
2023-04-17T23:44:50.626Z,25.63
2023-04-17T23:47:17.626Z,22.37
2023-04-17T23:49:44.620Z,22.20
2023-04-17T23:52:11.646Z,22.50
2023-04-17T23:54:38.640Z,24.77
2023-04-17T23:57:05.662Z,24.23
2023-04-17T23:59:32.670Z,24.30
